Lettsworth, Louisiana
Current Conditions -  °F | °C
As of 10:35 PM on Monday 20 Oct 2014 (Local Time) from KHZR Reporting Station
Clear Clear  
Wind Chill: 60°   Ceiling: Unl
Heat Index: 60°   Visibility: 10mi
Dew Point: 55°   Wind: 3mph
Humidity: 83%   Direction: 20°NNE
Pressure: 30.04"   Gusts: NA
Location:  30.93°N, 91.71°W
Report Text: KHZR 210335Z AUTO 02003KT 10SM CLR 16/13 A3004 RMK AO2 T01550126
Loading
Personal Weather Stations






























Interactive Weather Map
Tropical Storm Tracking
New forecast layout! Learn more

10-Day Weather Forecast

Advertisements
Track Severe Weather on mobile